Trabzon — 9HA2783 — position and weather

sailwx.info

Track history (hours):
 
Tides and Currents Weather Stations Pressure Air Temp Water Temp Dewpoint Dewpoint Depression Visibility Wind Speed Wind Dir Waves Ship Positions

Trabzon

Last reported at 2014-Jul-30 11:12 UTC. Time now 2014-Aug-02 08:40 UTC.
Position N 36°59' W 076°01'.

Length 229 m; draft 14.3 m.

Type: Cargo ship. MMSI: 215679000.

Date/timePositionNaut miles runAvg speedWind from/ knotsBaromVisibWave heightAir tempDewpointWater temp
2014-Jul-30 11:12N 36°59' W 076°01'6 9.3
2014-Jul-30 10:32N 37°04' W 076°06'10210.9
2014-Jul-30 01:09N 38°45' W 076°26'812.2
2014-Jul-30 00:32N 38°53' W 076°24'1010.1
2014-Jul-29 23:33N 39°02' W 076°23'9 8.6
2014-Jul-29 22:33N 39°11' W 076°26'7 6.7
2014-Jul-29 21:31N 39°13' W 076°34'0 0.1
2014-Jul-29 20:32N 39°13' W 076°35'0 0.0
2014-Jul-29 19:32N 39°13' W 076°35'0 0.0
2014-Jul-29 18:31N 39°13' W 076°35'0 0.0
2014-Jul-29 17:32N 39°13' W 076°35'0 0.0
2014-Jul-29 16:31N 39°13' W 076°35'0 0.0
2014-Jul-29 15:32N 39°13' W 076°35'0 0.0
2014-Jul-29 14:31N 39°13' W 076°35'0 0.0
2014-Jul-29 13:32N 39°13' W 076°35'0 0.0
2014-Jul-29 12:31N 39°13' W 076°35'0 0.0
2014-Jul-29 11:32N 39°13' W 076°35'0 0.0
2014-Jul-29 10:31N 39°13' W 076°35'0 0.0
2014-Jul-29 09:31N 39°13' W 076°35'0 0.0
2014-Jul-29 08:31N 39°13' W 076°35'0 0.0
2014-Jul-29 07:31N 39°13' W 076°35'0 0.0
2014-Jul-29 06:32N 39°13' W 076°35'0 0.0
2014-Jul-29 05:32N 39°13' W 076°35'0 0.0
2014-Jul-29 04:32N 39°13' W 076°35'0 0.0
2014-Jul-29 03:32N 39°13' W 076°35'0 0.0
2014-Jul-29 02:32N 39°13' W 076°35'0 0.0
2014-Jul-29 01:32N 39°13' W 076°35'0 0.0
2014-Jul-29 00:31N 39°13' W 076°35'0 0.0
2014-Jul-28 23:31N 39°13' W 076°35'0 0.0
2014-Jul-28 22:31N 39°13' W 076°35'0 0.0
2014-Jul-28 21:32N 39°13' W 076°35'0 0.0
2014-Jul-28 20:32N 39°13' W 076°35'0 0.0
2014-Jul-28 19:31N 39°13' W 076°35'0 0.0
2014-Jul-28 18:31N 39°13' W 076°35'0 0.0
2014-Jul-28 17:32N 39°13' W 076°35'0 0.0
2014-Jul-28 16:31N 39°13' W 076°35'0 0.0
2014-Jul-28 15:31N 39°13' W 076°35'2 2.0
2014-Jul-28 14:34N 39°13' W 076°32'10 9.4
2014-Jul-28 13:29N 39°06' W 076°24'1213.1
2014-Jul-28 12:33N 38°53' W 076°24'2013.7
2014-Jul-28 11:04N 38°33' W 076°26'7613.7
2014-Jul-28 05:30N 37°18' W 076°07'1313.7
2014-Jul-28 04:31N 37°05' W 076°06'2412.1
2014-Jul-28 02:33N 36°50' W 075°43'1212.2
2014-Jul-28 01:33N 36°51' W 075°27'18810.8
2014-Jul-27 08:15N 36°56' W 071°33'6 8.6
2014-Jul-27 07:33N 36°56' W 071°26'9 9.3
2014-Jul-27 06:33N 36°57' W 071°14'10 9.9
2014-Jul-27 05:33N 37°00' W 071°02'1410.7
2014-Jul-27 04:13N 37°05' W 070°45'  
Track history (hours):
 
Tides and Currents Weather Stations Pressure Air Temp Water Temp Dewpoint Dewpoint Depression Visibility Wind Speed Wind Dir Waves Ship Positions

Trabzon

Last reported at 2014-Jul-30 11:12 UTC. Time now 2014-Aug-02 08:40 UTC.
Position N 36°59' W 076°01'.

Length 229 m; draft 14.3 m.

Type: Cargo ship. MMSI: 215679000.

Date/timePositionNaut miles runAvg speedWind from/ knotsBaromVisibWave heightAir tempDewpointWater temp
2014-Jul-30 11:12N 36°59' W 076°01'6 9.3
2014-Jul-30 10:32N 37°04' W 076°06'10210.9
2014-Jul-30 01:09N 38°45' W 076°26'812.2
2014-Jul-30 00:32N 38°53' W 076°24'1010.1
2014-Jul-29 23:33N 39°02' W 076°23'9 8.6
2014-Jul-29 22:33N 39°11' W 076°26'7 6.7
2014-Jul-29 21:31N 39°13' W 076°34'0 0.1
2014-Jul-29 20:32N 39°13' W 076°35'0 0.0
2014-Jul-29 19:32N 39°13' W 076°35'0 0.0
2014-Jul-29 18:31N 39°13' W 076°35'0 0.0
2014-Jul-29 17:32N 39°13' W 076°35'0 0.0
2014-Jul-29 16:31N 39°13' W 076°35'0 0.0
2014-Jul-29 15:32N 39°13' W 076°35'0 0.0
2014-Jul-29 14:31N 39°13' W 076°35'0 0.0
2014-Jul-29 13:32N 39°13' W 076°35'0 0.0
2014-Jul-29 12:31N 39°13' W 076°35'0 0.0
2014-Jul-29 11:32N 39°13' W 076°35'0 0.0
2014-Jul-29 10:31N 39°13' W 076°35'0 0.0
2014-Jul-29 09:31N 39°13' W 076°35'0 0.0
2014-Jul-29 08:31N 39°13' W 076°35'0 0.0
2014-Jul-29 07:31N 39°13' W 076°35'0 0.0
2014-Jul-29 06:32N 39°13' W 076°35'0 0.0
2014-Jul-29 05:32N 39°13' W 076°35'0 0.0
2014-Jul-29 04:32N 39°13' W 076°35'0 0.0
2014-Jul-29 03:32N 39°13' W 076°35'0 0.0
2014-Jul-29 02:32N 39°13' W 076°35'0 0.0
2014-Jul-29 01:32N 39°13' W 076°35'0 0.0
2014-Jul-29 00:31N 39°13' W 076°35'0 0.0
2014-Jul-28 23:31N 39°13' W 076°35'0 0.0
2014-Jul-28 22:31N 39°13' W 076°35'0 0.0
2014-Jul-28 21:32N 39°13' W 076°35'0 0.0
2014-Jul-28 20:32N 39°13' W 076°35'0 0.0
2014-Jul-28 19:31N 39°13' W 076°35'0 0.0
2014-Jul-28 18:31N 39°13' W 076°35'0 0.0
2014-Jul-28 17:32N 39°13' W 076°35'0 0.0
2014-Jul-28 16:31N 39°13' W 076°35'0 0.0
2014-Jul-28 15:31N 39°13' W 076°35'2 2.0
2014-Jul-28 14:34N 39°13' W 076°32'10 9.4
2014-Jul-28 13:29N 39°06' W 076°24'1213.1
2014-Jul-28 12:33N 38°53' W 076°24'2013.7
2014-Jul-28 11:04N 38°33' W 076°26'7613.7
2014-Jul-28 05:30N 37°18' W 076°07'1313.7
2014-Jul-28 04:31N 37°05' W 076°06'2412.1
2014-Jul-28 02:33N 36°50' W 075°43'1212.2
2014-Jul-28 01:33N 36°51' W 075°27'18810.8
2014-Jul-27 08:15N 36°56' W 071°33'6 8.6
2014-Jul-27 07:33N 36°56' W 071°26'9 9.3
2014-Jul-27 06:33N 36°57' W 071°14'10 9.9
2014-Jul-27 05:33N 37°00' W 071°02'1410.7
2014-Jul-27 04:13N 37°05' W 070°45'  

Dump ship's entire track history